Time;durP1;ratioP1;P1;durP2;ratioP2;P2;SDS_P1;SDS_P2;PMS_P1;PMS_P2;Temp;Humidity;BMP_temperature;BMP_pressure;BME280_temperature;BME280_humidity;BME280_pressure;Samples;Min_cycle;Max_cycle;Signal;HPM_P1;HPM_P2
2020/12/16 00:01:16;;;;;;;2.53;2.33;;;21.90;53.40;;;;;;5116539;28;20550;-67
2020/12/16 00:03:42;;;;;;;2.80;2.37;;;22.00;53.50;;;;;;5116096;28;20189;-66
2020/12/16 00:06:07;;;;;;;3.40;2.70;;;21.90;53.40;;;;;;5116449;28;20489;-66
2020/12/16 00:08:33;;;;;;;4.23;2.80;;;21.90;53.40;;;;;;5116370;28;20198;-66
2020/12/16 00:10:58;;;;;;;3.33;2.20;;;21.90;53.50;;;;;;5114763;28;20165;-66
2020/12/16 00:13:24;;;;;;;2.50;2.30;;;21.90;53.50;;;;;;5116139;28;20188;-66
2020/12/16 00:15:50;;;;;;;2.30;2.07;;;21.90;53.50;;;;;;5116196;28;20221;-66
2020/12/16 00:18:16;;;;;;;3.40;2.30;;;21.90;53.50;;;;;;5116214;28;20659;-66
2020/12/16 00:20:41;;;;;;;2.57;2.00;;;21.90;53.50;;;;;;5116186;28;20179;-67
2020/12/16 00:23:07;;;;;;;2.37;2.10;;;21.90;53.50;;;;;;5115821;28;20189;-66
2020/12/16 00:25:33;;;;;;;2.90;2.63;;;21.80;53.40;;;;;;5115816;28;20169;-66
2020/12/16 00:27:58;;;;;;;3.20;2.90;;;21.90;53.50;;;;;;5115646;28;20219;-66
2020/12/16 00:30:24;;;;;;;3.23;2.70;;;21.80;53.40;;;;;;5115658;28;20169;-67
2020/12/16 00:32:49;;;;;;;2.40;2.20;;;21.90;53.50;;;;;;5113864;28;20566;-66
2020/12/16 00:35:15;;;;;;;2.57;2.07;;;21.90;53.50;;;;;;5115795;28;20172;-66
2020/12/16 00:37:42;;;;;;;2.80;2.10;;;21.80;53.50;;;;;;5115569;28;20298;-66
2020/12/16 00:40:09;;;;;;;2.40;2.20;;;21.80;53.50;;;;;;5115574;28;20647;-66
2020/12/16 00:42:35;;;;;;;2.33;2.10;;;21.80;53.50;;;;;;5115039;28;20537;-65
2020/12/16 00:45:02;;;;;;;2.60;2.40;;;21.80;53.50;;;;;;5115376;28;20434;-66
2020/12/16 00:47:31;;;;;;;2.90;2.57;;;21.80;53.50;;;;;;5115365;27;20251;-66
2020/12/16 00:49:57;;;;;;;3.80;2.40;;;21.80;53.50;;;;;;5115313;28;20799;-66
2020/12/16 00:52:28;;;;;;;3.80;2.20;;;21.80;53.50;;;;;;5115174;28;20521;-66
2020/12/16 00:54:54;;;;;;;3.23;2.50;;;21.80;53.50;;;;;;5115258;28;20168;-66
2020/12/16 00:57:21;;;;;;;2.57;2.17;;;21.80;53.60;;;;;;5115212;28;20407;-66
2020/12/16 00:59:47;;;;;;;2.57;2.00;;;21.80;53.60;;;;;;5115174;28;20928;-66
2020/12/16 01:02:12;;;;;;;3.13;2.47;;;21.80;53.60;;;;;;5114882;28;20458;-67
2020/12/16 01:04:38;;;;;;;2.30;2.10;;;21.70;53.50;;;;;;5114985;28;20171;-66
2020/12/16 01:07:04;;;;;;;2.80;2.27;;;21.80;53.60;;;;;;5114999;28;20627;-66
2020/12/16 01:09:29;;;;;;;2.40;2.13;;;21.70;53.50;;;;;;5114898;28;20169;-66
2020/12/16 01:11:55;;;;;;;2.60;2.07;;;21.70;53.50;;;;;;5114800;28;20212;-66
2020/12/16 01:14:21;;;;;;;2.63;2.30;;;21.70;53.50;;;;;;5114779;28;20169;-66
2020/12/16 01:16:46;;;;;;;3.33;2.20;;;21.70;53.50;;;;;;5115019;28;20173;-66
2020/12/16 01:19:12;;;;;;;2.37;2.17;;;21.70;53.50;;;;;;5114771;28;20205;-66
2020/12/16 01:21:38;;;;;;;2.13;1.93;;;21.70;53.50;;;;;;5114878;28;20271;-66
2020/12/16 01:24:07;;;;;;;2.50;2.30;;;21.70;53.60;;;;;;5113287;28;20296;-66
2020/12/16 01:26:41;;;;;;;2.63;2.03;;;21.70;53.60;;;;;;5114600;28;20639;-66
2020/12/16 01:29:08;;;;;;;3.00;2.60;;;21.70;53.50;;;;;;5114571;28;20383;-66
2020/12/16 01:31:40;;;;;;;3.60;2.60;;;21.70;54.20;;;;;;5114428;28;20777;-67
2020/12/16 01:34:07;;;;;;;2.03;1.80;;;21.70;54.20;;;;;;5114486;28;20426;-66
2020/12/16 01:36:36;;;;;;;2.50;2.30;;;21.70;53.60;;;;;;5114311;28;20399;-67
2020/12/16 01:39:01;;;;;;;2.73;2.17;;;21.70;53.60;;;;;;5114381;28;20746;-66
2020/12/16 01:41:27;;;;;;;2.50;2.30;;;21.70;53.60;;;;;;5114128;28;20438;-67
2020/12/16 01:43:53;;;;;;;2.37;2.17;;;21.70;53.60;;;;;;5113481;28;20701;-67
2020/12/16 01:46:18;;;;;;;2.10;1.90;;;21.60;53.50;;;;;;5114265;28;20176;-66
2020/12/16 01:48:44;;;;;;;3.10;2.63;;;21.60;53.50;;;;;;5114160;28;20172;-67
2020/12/16 01:51:16;;;;;;;2.90;2.60;;;21.60;53.50;;;;;;5114263;28;20177;-66
2020/12/16 01:53:43;;;;;;;3.23;2.53;;;21.60;53.60;;;;;;5114277;27;20161;-66
2020/12/16 01:56:11;;;;;;;2.33;2.13;;;21.60;53.60;;;;;;5114117;28;20403;-66
2020/12/16 01:58:41;;;;;;;2.43;2.23;;;21.60;53.60;;;;;;5114031;28;20414;-66
2020/12/16 02:01:06;;;;;;;2.87;2.57;;;21.60;53.60;;;;;;5114181;28;20498;-66
2020/12/16 02:03:34;;;;;;;3.40;3.10;;;21.60;53.60;;;;;;5114249;28;20541;-66
2020/12/16 02:06:03;;;;;;;2.80;2.50;;;21.60;53.60;;;;;;5113895;28;20197;-66
2020/12/16 02:08:29;;;;;;;3.07;2.70;;;21.60;53.60;;;;;;5113909;28;20409;-66
2020/12/16 02:10:55;;;;;;;2.27;2.07;;;21.60;53.60;;;;;;5113842;28;20403;-66
2020/12/16 02:13:21;;;;;;;2.63;2.40;;;21.60;53.60;;;;;;5113553;28;20426;-67
2020/12/16 02:15:46;;;;;;;2.93;2.63;;;21.60;53.60;;;;;;5113818;28;20644;-66
2020/12/16 02:18:12;;;;;;;2.20;2.00;;;21.60;53.60;;;;;;5113775;28;20192;-67
2020/12/16 02:20:37;;;;;;;2.93;2.73;;;21.60;53.60;;;;;;5113650;28;20172;-66
2020/12/16 02:23:08;;;;;;;3.63;3.10;;;21.60;53.60;;;;;;5113520;28;20196;-66
2020/12/16 02:25:35;;;;;;;3.47;3.17;;;21.60;53.60;;;;;;5113747;28;20149;-66
2020/12/16 02:28:00;;;;;;;2.83;2.63;;;21.60;53.60;;;;;;5113626;28;20434;-66
2020/12/16 02:30:26;;;;;;;2.77;2.43;;;21.60;53.60;;;;;;5113525;28;20437;-66
2020/12/16 02:32:51;;;;;;;2.60;2.07;;;21.60;53.60;;;;;;5113507;28;20338;-66
2020/12/16 02:35:17;;;;;;;2.40;2.20;;;21.60;53.60;;;;;;5113467;28;20702;-66
2020/12/16 02:37:43;;;;;;;2.77;2.57;;;21.60;53.60;;;;;;5113762;28;20161;-66
2020/12/16 02:40:08;;;;;;;2.40;2.20;;;21.60;53.60;;;;;;5113421;28;20217;-66
2020/12/16 02:42:34;;;;;;;5.53;2.23;;;21.60;53.60;;;;;;5113126;28;20209;-66
2020/12/16 02:45:00;;;;;;;2.40;2.20;;;21.60;53.60;;;;;;5113453;28;20153;-66
2020/12/16 02:47:26;;;;;;;2.50;2.30;;;21.60;53.60;;;;;;5113699;28;20173;-66
2020/12/16 02:49:52;;;;;;;3.97;2.90;;;21.60;53.60;;;;;;5112149;28;20414;-66
2020/12/16 02:52:18;;;;;;;2.67;2.30;;;21.60;53.60;;;;;;5113529;28;20517;-66
2020/12/16 02:54:43;;;;;;;2.83;2.53;;;21.60;53.60;;;;;;5115114;28;20497;-66
2020/12/16 02:57:09;;;;;;;3.23;2.63;;;21.60;53.60;;;;;;5118057;28;20260;-66
2020/12/16 02:59:35;;;;;;;2.73;2.50;;;21.60;53.60;;;;;;5117506;28;20165;-66
2020/12/16 03:02:01;;;;;;;2.70;2.50;;;21.60;53.60;;;;;;5117314;28;20188;-66
2020/12/16 03:04:26;;;;;;;2.33;2.13;;;21.60;53.60;;;;;;5117348;28;20165;-66
2020/12/16 03:06:54;;;;;;;2.73;2.47;;;21.60;53.60;;;;;;5117281;28;20630;-65
2020/12/16 03:09:21;;;;;;;2.50;2.30;;;21.60;54.10;;;;;;5117316;28;20215;-66
2020/12/16 03:11:54;;;;;;;4.43;2.63;;;21.60;53.60;;;;;;5117174;28;20429;-66
2020/12/16 03:14:20;;;;;;;2.60;2.40;;;21.60;53.60;;;;;;5117266;28;20478;-66
2020/12/16 03:16:46;;;;;;;2.70;2.50;;;21.60;53.60;;;;;;5117025;28;20445;-67
2020/12/16 03:19:11;;;;;;;2.10;1.90;;;21.60;54.20;;;;;;5117202;28;20161;-66
2020/12/16 03:21:37;;;;;;;2.80;2.50;;;21.60;53.60;;;;;;5117050;28;20188;-66
2020/12/16 03:24:03;;;;;;;3.30;2.77;;;21.50;53.50;;;;;;5117225;28;20211;-67
2020/12/16 03:26:28;;;;;;;2.23;1.87;;;21.50;53.50;;;;;;5117120;28;20700;-67
2020/12/16 03:28:54;;;;;;;4.10;2.80;;;21.50;53.50;;;;;;5115633;28;20184;-67
2020/12/16 03:31:20;;;;;;;2.63;2.40;;;21.50;53.50;;;;;;5115581;28;20260;-67
2020/12/16 03:33:46;;;;;;;2.80;2.50;;;21.50;53.50;;;;;;5116823;28;20177;-67
2020/12/16 03:36:20;;;;;;;2.53;2.30;;;21.50;53.50;;;;;;5116757;28;20183;-67
2020/12/16 03:38:47;;;;;;;2.63;2.40;;;21.50;53.50;;;;;;5116739;28;20419;-67
2020/12/16 03:41:14;;;;;;;3.17;2.63;;;21.50;53.50;;;;;;5116870;28;20442;-67
2020/12/16 03:43:42;;;;;;;2.57;2.37;;;21.50;53.50;;;;;;5116492;28;20450;-67
2020/12/16 03:46:11;;;;;;;4.23;3.37;;;21.50;53.50;;;;;;5116790;28;20407;-67
2020/12/16 03:48:38;;;;;;;2.50;2.30;;;21.50;53.50;;;;;;5115239;28;20417;-67
2020/12/16 03:51:05;;;;;;;2.30;2.10;;;21.50;53.50;;;;;;5116488;28;20399;-67
2020/12/16 03:53:33;;;;;;;3.40;3.10;;;21.50;53.50;;;;;;5116675;28;20426;-67
2020/12/16 03:56:03;;;;;;;3.30;3.00;;;21.50;53.60;;;;;;5116382;28;20411;-68
2020/12/16 03:58:28;;;;;;;2.70;2.50;;;21.50;53.60;;;;;;5116655;28;20734;-67
2020/12/16 04:00:54;;;;;;;3.30;3.00;;;21.50;53.60;;;;;;5116273;28;20524;-67
2020/12/16 04:03:20;;;;;;;3.40;2.50;;;21.50;53.60;;;;;;5116137;28;20231;-67
2020/12/16 04:05:45;;;;;;;2.80;2.37;;;21.50;53.60;;;;;;5115828;28;20173;-67
2020/12/16 04:08:11;;;;;;;2.53;2.33;;;21.50;53.60;;;;;;5115667;28;20161;-67
2020/12/16 04:10:36;;;;;;;4.00;2.97;;;21.50;53.60;;;;;;5116359;28;20531;-67
2020/12/16 04:13:02;;;;;;;2.40;2.20;;;21.50;53.60;;;;;;5115992;28;20224;-67
2020/12/16 04:15:28;;;;;;;3.00;2.60;;;21.50;53.60;;;;;;5116031;28;20180;-67
2020/12/16 04:17:53;;;;;;;2.37;2.13;;;21.50;53.60;;;;;;5115934;28;20176;-65
2020/12/16 04:20:19;;;;;;;4.17;2.40;;;21.50;53.60;;;;;;5116164;28;20641;-67
2020/12/16 04:22:44;;;;;;;2.50;2.30;;;21.50;53.60;;;;;;5115801;28;20192;-67
2020/12/16 04:25:10;;;;;;;2.80;2.30;;;21.50;53.60;;;;;;5116076;28;20236;-67
2020/12/16 04:27:35;;;;;;;3.07;2.77;;;21.50;53.60;;;;;;5115995;28;20176;-67
2020/12/16 04:30:03;;;;;;;2.87;2.67;;;21.50;53.60;;;;;;5116052;28;20165;-67
2020/12/16 04:32:29;;;;;;;3.50;2.40;;;21.50;53.60;;;;;;5115783;28;20185;-66
2020/12/16 04:34:54;;;;;;;3.73;2.47;;;21.50;53.60;;;;;;5115546;28;20407;-67
2020/12/16 04:37:20;;;;;;;3.13;2.83;;;21.40;53.50;;;;;;5115771;28;20183;-67
2020/12/16 04:39:46;;;;;;;3.33;2.67;;;21.50;53.60;;;;;;5115637;28;20663;-67
2020/12/16 04:42:11;;;;;;;2.80;2.60;;;21.50;53.60;;;;;;5115514;28;20232;-67
2020/12/16 04:44:37;;;;;;;3.20;2.90;;;21.50;53.60;;;;;;5115739;28;20164;-67
2020/12/16 04:47:03;;;;;;;2.87;2.67;;;21.50;53.60;;;;;;5115401;28;20190;-67
2020/12/16 04:49:29;;;;;;;2.50;2.23;;;21.50;53.60;;;;;;5115336;28;20165;-66
2020/12/16 04:51:55;;;;;;;2.83;2.63;;;21.50;53.60;;;;;;5115268;28;20189;-67
2020/12/16 04:54:21;;;;;;;4.17;3.50;;;21.40;53.60;;;;;;5115313;28;20165;-67
2020/12/16 04:56:47;;;;;;;3.30;2.80;;;21.50;53.60;;;;;;5115261;28;20402;-67
2020/12/16 04:59:12;;;;;;;4.70;2.73;;;21.40;53.60;;;;;;5115446;28;20670;-67
2020/12/16 05:01:43;;;;;;;2.80;2.60;;;21.40;53.50;;;;;;5115337;28;20427;-67
2020/12/16 05:04:09;;;;;;;2.93;2.60;;;21.40;53.50;;;;;;5114972;28;20197;-67
2020/12/16 05:06:36;;;;;;;3.27;2.97;;;21.40;53.50;;;;;;5114969;28;20395;-67
2020/12/16 05:09:05;;;;;;;3.27;2.70;;;21.40;53.50;;;;;;5115011;28;20765;-67
2020/12/16 05:11:43;;;;;;;4.40;3.33;;;21.40;53.60;;;;;;5114937;28;20448;-67
2020/12/16 05:14:23;;;;;;;2.87;2.67;;;21.40;53.60;;;;;;5115191;28;20410;-67
2020/12/16 05:16:52;;;;;;;2.80;2.60;;;21.40;53.60;;;;;;5115147;28;20382;-67
2020/12/16 05:19:45;;;;;;;2.50;2.27;;;21.40;53.60;;;;;;5114748;28;20395;-67
2020/12/16 05:22:21;;;;;;;3.30;3.00;;;21.40;53.60;;;;;;5111215;28;20570;-67
2020/12/16 05:24:58;;;;;;;2.33;2.13;;;21.30;53.60;;;;;;5115004;28;20383;-67
2020/12/16 05:27:26;;;;;;;3.20;2.70;;;21.30;53.60;;;;;;5114695;28;20386;-67
2020/12/16 05:29:54;;;;;;;2.60;2.40;;;21.30;53.60;;;;;;5114540;28;20445;-67
2020/12/16 05:32:23;;;;;;;3.27;2.97;;;21.30;53.70;;;;;;5114665;28;20960;-67
2020/12/16 05:34:49;;;;;;;4.67;2.80;;;21.30;53.60;;;;;;5114729;28;20425;-67
2020/12/16 05:37:26;;;;;;;3.13;2.83;;;21.30;53.60;;;;;;5114542;28;20452;-67
2020/12/16 05:40:10;;;;;;;3.60;3.30;;;21.30;53.60;;;;;;5114362;28;20403;-67
2020/12/16 05:42:35;;;;;;;3.13;2.83;;;21.30;53.60;;;;;;5114123;28;20465;-67
2020/12/16 05:45:16;;;;;;;2.77;2.50;;;21.30;53.70;;;;;;5114260;28;20407;-67
2020/12/16 05:47:59;;;;;;;3.33;3.03;;;21.30;53.60;;;;;;5114275;28;20236;-68
2020/12/16 05:50:33;;;;;;;4.00;3.07;;;21.30;53.60;;;;;;5114209;28;20382;-67
2020/12/16 05:53:18;;;;;;;3.23;2.93;;;21.30;53.70;;;;;;5114394;28;20446;-67
2020/12/16 05:55:49;;;;;;;3.13;2.83;;;21.30;53.60;;;;;;5114217;28;20874;-67
2020/12/16 05:58:17;;;;;;;2.70;2.50;;;21.30;53.60;;;;;;5114096;28;20391;-66
2020/12/16 06:00:43;;;;;;;2.77;2.57;;;21.30;53.60;;;;;;5112733;28;20429;-67
2020/12/16 06:03:21;;;;;;;3.90;3.50;;;21.40;53.70;;;;;;5113762;28;20450;-67
2020/12/16 06:05:52;;;;;;;3.20;2.60;;;21.40;53.90;;;;;;5113945;28;20434;-67
2020/12/16 06:08:18;;;;;;;3.97;2.67;;;21.40;53.60;;;;;;5114246;28;20383;-67
2020/12/16 06:10:46;;;;;;;2.60;2.40;;;21.40;53.60;;;;;;5114088;28;20437;-67
2020/12/16 06:13:13;;;;;;;2.97;2.70;;;21.40;53.50;;;;;;5114011;28;20430;-67
2020/12/16 06:15:58;;;;;;;3.20;2.60;;;21.40;53.50;;;;;;5114075;28;20860;-67
2020/12/16 06:18:27;;;;;;;3.33;3.03;;;21.40;53.50;;;;;;5113985;28;20437;-67
2020/12/16 06:20:53;;;;;;;2.63;2.43;;;21.40;53.50;;;;;;5113762;28;20413;-67
2020/12/16 06:23:28;;;;;;;3.00;2.70;;;21.40;53.40;;;;;;5113821;28;20455;-65
2020/12/16 06:25:56;;;;;;;3.03;2.70;;;21.40;53.40;;;;;;5113698;28;20401;-67
2020/12/16 06:28:22;;;;;;;3.30;3.00;;;21.50;53.50;;;;;;5113857;28;20434;-67
2020/12/16 06:30:57;;;;;;;3.23;2.93;;;21.50;53.50;;;;;;5113240;28;20449;-66
2020/12/16 06:33:40;;;;;;;3.10;2.80;;;21.50;53.40;;;;;;5113594;28;20509;-67
2020/12/16 06:36:08;;;;;;;2.50;2.30;;;21.50;53.30;;;;;;5113964;28;20414;-68
2020/12/16 06:38:45;;;;;;;2.70;2.50;;;21.50;53.40;;;;;;5114004;28;20411;-67
2020/12/16 06:41:23;;;;;;;3.20;2.77;;;21.50;53.40;;;;;;5113522;28;20438;-68
2020/12/16 06:43:50;;;;;;;3.10;2.60;;;21.50;53.40;;;;;;5113501;28;20788;-68
2020/12/16 06:46:31;;;;;;;3.00;2.70;;;21.50;53.40;;;;;;5113491;28;20393;-69
2020/12/16 06:49:04;;;;;;;3.70;2.73;;;21.50;53.40;;;;;;5113662;28;20490;-68
2020/12/16 06:51:30;;;;;;;3.10;2.80;;;21.50;53.40;;;;;;5113384;28;20399;-67
2020/12/16 06:54:07;;;;;;;3.97;3.00;;;21.50;53.40;;;;;;5113661;28;20467;-68
2020/12/16 06:56:33;;;;;;;3.23;2.90;;;21.50;53.30;;;;;;5113530;28;20403;-68
2020/12/16 06:58:59;;;;;;;7.00;3.23;;;21.50;53.30;;;;;;5113585;28;20413;-68
2020/12/16 07:01:25;;;;;;;2.67;2.47;;;21.50;53.30;;;;;;5113668;28;20765;-68
2020/12/16 07:03:51;;;;;;;3.60;3.30;;;21.50;53.20;;;;;;5111885;28;20257;-68
2020/12/16 07:06:28;;;;;;;5.30;2.70;;;21.50;53.20;;;;;;5113206;28;20402;-68
2020/12/16 07:09:23;;;;;;;3.50;3.20;;;21.60;53.20;;;;;;5111928;28;20407;-68
2020/12/16 07:11:53;;;;;;;3.23;2.93;;;21.60;53.20;;;;;;5113485;28;20442;-67
2020/12/16 07:14:25;;;;;;;3.17;2.43;;;21.60;53.80;;;;;;5113244;28;20383;-68
2020/12/16 07:16:52;;;;;;;3.27;2.97;;;21.60;53.20;;;;;;5113198;28;20407;-71
2020/12/16 07:19:28;;;;;;;2.90;2.50;;;21.60;53.20;;;;;;5113431;28;20407;-67
2020/12/16 07:21:55;;;;;;;2.77;2.57;;;21.60;53.30;;;;;;5112982;28;20458;-67
2020/12/16 07:24:22;;;;;;;3.13;2.80;;;21.60;53.20;;;;;;5113451;28;20399;-67
2020/12/16 07:26:53;;;;;;;4.33;3.40;;;21.60;53.20;;;;;;5113645;28;20422;-66
2020/12/16 07:29:24;;;;;;;2.97;2.67;;;21.70;53.20;;;;;;5113583;28;20948;-67
2020/12/16 07:32:00;;;;;;;3.60;3.10;;;21.70;53.20;;;;;;5113102;28;20491;-66
2020/12/16 07:34:26;;;;;;;3.20;2.83;;;21.70;53.10;;;;;;5113345;28;20391;-66
2020/12/16 07:36:56;;;;;;;2.73;2.27;;;21.70;53.00;;;;;;5113317;28;20403;-67
2020/12/16 07:39:23;;;;;;;3.90;2.83;;;21.80;53.10;;;;;;5113283;28;20391;-67
2020/12/16 07:41:49;;;;;;;3.40;2.77;;;21.80;53.00;;;;;;5113898;28;20511;-68
2020/12/16 07:44:15;;;;;;;3.93;2.70;;;21.80;53.00;;;;;;5116604;28;20458;-68
2020/12/16 07:46:40;;;;;;;3.17;2.70;;;21.90;53.00;;;;;;5116590;28;20219;-66
2020/12/16 07:49:10;;;;;;;2.83;2.50;;;21.90;53.00;;;;;;5116474;28;20535;-67
2020/12/16 07:51:36;;;;;;;3.13;2.50;;;21.90;53.00;;;;;;5116562;27;20153;-66
2020/12/16 07:54:02;;;;;;;2.60;2.40;;;21.90;52.90;;;;;;5116692;28;20765;-67
2020/12/16 07:56:27;;;;;;;3.30;2.90;;;22.00;53.00;;;;;;5116732;28;20285;-68
2020/12/16 07:58:53;;;;;;;3.43;2.63;;;22.00;52.90;;;;;;5115110;28;20177;-67
2020/12/16 08:01:19;;;;;;;2.70;2.50;;;22.00;52.90;;;;;;5116453;28;20176;-67
2020/12/16 08:03:46;;;;;;;3.07;2.77;;;22.00;52.90;;;;;;5116246;28;20189;-67
2020/12/16 08:06:12;;;;;;;3.13;2.40;;;22.10;53.00;;;;;;5116134;28;20407;-68
2020/12/16 08:08:48;;;;;;;3.00;2.40;;;22.10;52.90;;;;;;5116454;28;20403;-67
2020/12/16 08:11:21;;;;;;;2.77;2.53;;;22.10;52.90;;;;;;5116129;28;20403;-68
2020/12/16 08:13:48;;;;;;;2.77;2.53;;;22.20;53.00;;;;;;5116393;28;20401;-68
2020/12/16 08:16:14;;;;;;;2.77;2.30;;;22.20;52.90;;;;;;5116053;28;20407;-67
2020/12/16 08:18:47;;;;;;;2.80;2.60;;;22.20;52.90;;;;;;5116076;28;20402;-67
2020/12/16 08:21:21;;;;;;;2.30;2.07;;;22.20;52.90;;;;;;5116188;28;20456;-67
2020/12/16 08:23:48;;;;;;;2.63;2.17;;;22.20;52.90;;;;;;5115985;28;20550;-68
2020/12/16 08:26:15;;;;;;;2.63;2.07;;;22.20;52.90;;;;;;5116058;28;20410;-67
2020/12/16 08:28:41;;;;;;;3.40;2.63;;;22.20;52.90;;;;;;5115756;28;20399;-67
2020/12/16 08:31:07;;;;;;;2.53;2.33;;;22.20;52.90;;;;;;5115753;28;20455;-67
2020/12/16 08:33:33;;;;;;;2.97;2.47;;;22.30;52.90;;;;;;5115630;28;20196;-67
2020/12/16 08:36:04;;;;;;;2.30;2.10;;;22.30;52.90;;;;;;5117211;28;20205;-67
2020/12/16 08:38:39;;;;;;;3.17;2.40;;;22.30;52.90;;;;;;5116587;28;20387;-65
2020/12/16 08:41:07;;;;;;;2.63;2.40;;;22.30;52.90;;;;;;5115625;28;20418;-65
2020/12/16 08:43:39;;;;;;;3.10;2.80;;;22.30;52.90;;;;;;5115268;28;20465;-65
2020/12/16 08:46:12;;;;;;;3.73;2.27;;;22.30;52.90;;;;;;5115421;28;20407;-65
2020/12/16 08:49:00;;;;;;;3.03;2.43;;;22.30;52.90;;;;;;5115402;28;20403;-65
2020/12/16 08:51:35;;;;;;;3.23;2.87;;;22.30;52.90;;;;;;5115270;28;20478;-66
2020/12/16 08:54:05;;;;;;;2.50;2.30;;;22.40;53.00;;;;;;5114958;28;20421;-65
2020/12/16 08:56:39;;;;;;;4.93;2.20;;;22.30;52.90;;;;;;5115534;28;20960;-65
2020/12/16 08:59:07;;;;;;;2.43;1.97;;;22.40;53.00;;;;;;5115593;28;20383;-66
2020/12/16 09:01:34;;;;;;;2.47;2.23;;;22.40;53.00;;;;;;5115377;28;20403;-65
2020/12/16 09:04:00;;;;;;;2.47;2.27;;;22.40;53.00;;;;;;5115222;28;20485;-65
2020/12/16 09:06:26;;;;;;;2.77;2.57;;;22.40;53.00;;;;;;5115038;28;20406;-65
2020/12/16 09:08:52;;;;;;;3.27;2.30;;;22.40;53.00;;;;;;5115239;28;20414;-64
2020/12/16 09:11:19;;;;;;;2.40;2.20;;;22.40;53.00;;;;;;5113566;28;20932;-65
2020/12/16 09:13:46;;;;;;;3.60;2.30;;;22.40;53.00;;;;;;5114874;27;20904;-66
2020/12/16 09:16:24;;;;;;;2.40;2.20;;;22.40;53.00;;;;;;5113562;28;20434;-67
2020/12/16 09:18:51;;;;;;;2.13;1.90;;;22.40;53.00;;;;;;5114832;28;20391;-68
2020/12/16 09:21:29;;;;;;;2.40;2.20;;;22.40;53.00;;;;;;5114630;28;20415;-67
2020/12/16 09:23:54;;;;;;;2.40;2.20;;;22.40;53.00;;;;;;5114867;28;20873;-68
2020/12/16 09:26:32;;;;;;;2.17;1.93;;;22.40;53.00;;;;;;5114639;28;20526;-68
2020/12/16 09:28:57;;;;;;;2.37;2.03;;;22.50;53.10;;;;;;5114940;28;20165;-67
2020/12/16 09:31:23;;;;;;;2.23;2.03;;;22.50;53.10;;;;;;5114749;28;20410;-65
2020/12/16 09:33:58;;;;;;;2.93;2.17;;;22.50;53.10;;;;;;5114566;28;20169;-65
2020/12/16 09:36:28;;;;;;;2.60;2.40;;;22.50;53.10;;;;;;5114681;28;20183;-65
2020/12/16 09:39:03;;;;;;;1.80;1.70;;;22.50;53.10;;;;;;5114416;28;20958;-65
2020/12/16 09:41:28;;;;;;;2.30;2.10;;;22.50;53.10;;;;;;5114280;28;20482;-65
2020/12/16 09:43:54;;;;;;;2.50;2.30;;;22.50;53.10;;;;;;5114215;28;20954;-65
2020/12/16 09:46:22;;;;;;;3.20;1.93;;;22.50;53.10;;;;;;5114577;28;20604;-65
2020/12/16 09:48:50;;;;;;;3.23;2.30;;;22.50;53.10;;;;;;5114279;28;20172;-65
2020/12/16 09:51:19;;;;;;;1.87;1.67;;;22.50;53.10;;;;;;5114149;28;20387;-65
2020/12/16 09:53:46;;;;;;;2.17;1.97;;;22.50;53.10;;;;;;5114478;28;20442;-66
2020/12/16 09:56:26;;;;;;;2.20;2.00;;;22.50;53.10;;;;;;5114354;28;20886;-65
2020/12/16 09:58:52;;;;;;;2.57;1.90;;;22.50;53.10;;;;;;5114489;28;20498;-65
2020/12/16 10:01:18;;;;;;;2.47;1.90;;;22.50;53.10;;;;;;5113923;28;20425;-64
2020/12/16 10:03:44;;;;;;;1.73;1.50;;;22.50;53.10;;;;;;5113492;28;21035;-64
2020/12/16 10:06:12;;;;;;;2.53;2.00;;;22.50;53.10;;;;;;5113625;28;20165;-65
2020/12/16 10:08:37;;;;;;;1.90;1.67;;;22.50;53.10;;;;;;5113953;28;20823;-65
2020/12/16 10:11:03;;;;;;;1.90;1.70;;;22.50;53.10;;;;;;5114051;28;20398;-66
2020/12/16 10:13:29;;;;;;;2.63;2.17;;;22.50;53.10;;;;;;5113731;28;20246;-64
2020/12/16 10:15:54;;;;;;;2.20;2.00;;;22.50;53.10;;;;;;5113858;28;20214;-65
2020/12/16 10:18:20;;;;;;;2.50;2.30;;;22.50;53.10;;;;;;5113763;28;20176;-66
2020/12/16 10:20:45;;;;;;;2.20;2.00;;;22.50;53.10;;;;;;5113986;28;20177;-66
2020/12/16 10:23:11;;;;;;;2.20;2.00;;;22.60;53.20;;;;;;5113466;28;20212;-67
2020/12/16 10:25:52;;;;;;;1.73;1.63;;;22.60;53.20;;;;;;5079788;28;20211;-67
2020/12/16 10:28:21;;;;;;;2.53;2.00;;;22.60;53.20;;;;;;5113892;28;20411;-65
2020/12/16 10:30:49;;;;;;;1.80;1.70;;;22.60;53.20;;;;;;5113527;28;20157;-68
2020/12/16 10:33:16;;;;;;;1.80;1.60;;;22.60;53.20;;;;;;5113459;28;20431;-65
2020/12/16 10:35:43;;;;;;;3.10;2.13;;;22.60;53.20;;;;;;5113570;28;20798;-68
2020/12/16 10:38:09;;;;;;;2.10;1.90;;;22.60;53.20;;;;;;5113568;28;20399;-67
2020/12/16 10:40:35;;;;;;;2.27;1.80;;;22.60;53.20;;;;;;5113371;28;20414;-68
2020/12/16 10:43:02;;;;;;;2.00;1.80;;;22.60;53.20;;;;;;5113385;28;20462;-67
2020/12/16 10:45:28;;;;;;;2.83;1.90;;;22.60;53.30;;;;;;5113493;28;20407;-67
2020/12/16 10:47:59;;;;;;;2.47;2.17;;;22.60;53.20;;;;;;5113748;28;20818;-67
2020/12/16 10:50:25;;;;;;;2.93;1.83;;;22.60;53.20;;;;;;5113492;28;20240;-67
2020/12/16 10:52:51;;;;;;;2.07;1.87;;;22.60;53.20;;;;;;5113662;28;20434;-67
2020/12/16 10:55:17;;;;;;;2.43;1.90;;;22.60;53.80;;;;;;5113381;28;20410;-67
2020/12/16 10:57:44;;;;;;;3.10;2.10;;;22.70;53.20;;;;;;5113427;28;20181;-68
2020/12/16 11:00:09;;;;;;;2.20;2.00;;;22.70;53.20;;;;;;5113596;28;20820;-67
2020/12/16 11:02:35;;;;;;;2.90;2.00;;;22.70;53.20;;;;;;5113234;28;20553;-68
2020/12/16 11:05:01;;;;;;;2.60;2.30;;;22.70;53.20;;;;;;5113573;28;20173;-67
2020/12/16 11:07:26;;;;;;;2.20;1.87;;;22.70;53.20;;;;;;5113192;28;20222;-67
2020/12/16 11:09:52;;;;;;;2.70;1.83;;;22.70;53.20;;;;;;5113137;28;20252;-66
2020/12/16 11:12:17;;;;;;;4.50;1.83;;;22.70;53.20;;;;;;5113112;28;20238;-68
2020/12/16 11:14:43;;;;;;;2.47;2.03;;;22.70;53.20;;;;;;5113405;28;20689;-66
2020/12/16 11:17:09;;;;;;;2.27;1.83;;;22.70;53.20;;;;;;5116592;28;20173;-66
2020/12/16 11:19:34;;;;;;;2.40;2.00;;;22.70;53.20;;;;;;5117075;28;20259;-64
2020/12/16 11:22:01;;;;;;;2.43;2.17;;;22.70;53.20;;;;;;5117012;28;20188;-67
2020/12/16 11:24:27;;;;;;;1.87;1.73;;;22.70;53.20;;;;;;5117035;28;20168;-64
2020/12/16 11:26:53;;;;;;;2.80;1.80;;;22.70;53.20;;;;;;5115832;28;20881;-63
2020/12/16 11:29:24;;;;;;;1.80;1.70;;;22.70;53.20;;;;;;5117140;28;20409;-65
2020/12/16 11:31:52;;;;;;;1.90;1.70;;;22.70;53.20;;;;;;5117192;28;21007;-66
2020/12/16 11:34:20;;;;;;;2.03;1.83;;;22.70;53.20;;;;;;5116836;28;20402;-66
2020/12/16 11:36:48;;;;;;;1.63;1.53;;;22.70;53.10;;;;;;5116825;27;20386;-66
2020/12/16 11:39:14;;;;;;;2.40;2.20;;;22.70;53.10;;;;;;5116860;28;20398;-66
2020/12/16 11:41:48;;;;;;;2.50;1.90;;;22.70;53.20;;;;;;5116501;27;20511;-66
2020/12/16 11:44:15;;;;;;;2.50;1.80;;;22.70;53.10;;;;;;5116864;28;20519;-66
2020/12/16 11:46:42;;;;;;;3.23;1.53;;;22.70;53.10;;;;;;5116535;28;20403;-66
2020/12/16 11:49:08;;;;;;;2.07;1.73;;;22.70;53.10;;;;;;5116773;28;20470;-66
2020/12/16 11:51:34;;;;;;;2.27;1.80;;;22.70;53.10;;;;;;5116477;28;20457;-66
2020/12/16 11:53:59;;;;;;;2.83;2.20;;;22.70;53.20;;;;;;5116461;28;20169;-66
2020/12/16 11:56:25;;;;;;;2.47;1.70;;;22.70;53.10;;;;;;5116377;28;20169;-67
2020/12/16 11:58:51;;;;;;;1.93;1.77;;;22.70;53.20;;;;;;5116559;28;20566;-66
2020/12/16 12:01:18;;;;;;;2.30;2.10;;;22.70;53.10;;;;;;5116353;28;20256;-66
2020/12/16 12:03:45;;;;;;;2.37;1.90;;;22.80;53.20;;;;;;5116467;28;20446;-66
2020/12/16 12:06:12;;;;;;;1.80;1.63;;;22.80;53.20;;;;;;5116271;28;20403;-66
2020/12/16 12:08:38;;;;;;;2.03;1.70;;;22.80;53.20;;;;;;5116443;28;20788;-65
2020/12/16 12:11:04;;;;;;;2.23;1.90;;;22.80;53.20;;;;;;5116140;28;20407;-66
2020/12/16 12:13:30;;;;;;;2.40;1.70;;;22.80;53.20;;;;;;5116066;28;20467;-66
2020/12/16 12:15:55;;;;;;;2.27;1.80;;;22.80;53.20;;;;;;5114737;28;20519;-66
2020/12/16 12:18:21;;;;;;;2.27;2.07;;;22.80;53.20;;;;;;5115998;28;20245;-66
2020/12/16 12:20:47;;;;;;;2.63;2.37;;;22.80;53.20;;;;;;5114720;28;20180;-66
2020/12/16 12:23:13;;;;;;;2.50;1.87;;;22.80;53.20;;;;;;5115835;28;20193;-67
2020/12/16 12:25:38;;;;;;;2.10;1.73;;;22.80;53.20;;;;;;5116134;28;20639;-66
2020/12/16 12:28:04;;;;;;;2.13;1.80;;;22.80;53.10;;;;;;5115058;28;20627;-65
2020/12/16 12:30:29;;;;;;;2.13;1.90;;;22.80;53.10;;;;;;5116077;28;20165;-67
2020/12/16 12:32:55;;;;;;;2.00;1.70;;;22.80;53.20;;;;;;5115698;28;20196;-66
2020/12/16 12:35:21;;;;;;;3.83;2.33;;;22.80;53.20;;;;;;5115670;28;20184;-67
2020/12/16 12:37:46;;;;;;;1.90;1.63;;;22.80;53.20;;;;;;5115692;28;20251;-66
2020/12/16 12:40:12;;;;;;;2.97;2.43;;;22.80;53.20;;;;;;5115505;28;20418;-67
2020/12/16 12:42:38;;;;;;;2.57;2.20;;;22.80;53.20;;;;;;5115368;28;20258;-67
2020/12/16 12:45:05;;;;;;;2.70;2.20;;;22.80;53.20;;;;;;5115456;28;20187;-67
2020/12/16 12:47:30;;;;;;;2.43;2.23;;;22.80;53.20;;;;;;5115030;28;20177;-67
2020/12/16 12:49:56;;;;;;;2.40;2.20;;;22.80;53.20;;;;;;5115404;28;20760;-68
2020/12/16 12:52:22;;;;;;;2.67;2.07;;;22.70;53.20;;;;;;5115271;28;20193;-68